createdAt,value
2023-02-22T00:01:50.573Z,24.17
2023-02-22T00:04:21.208Z,25.87
2023-02-22T00:06:49.691Z,23.17
2023-02-22T00:09:20.519Z,20.63
2023-02-22T00:11:48.797Z,18.80
2023-02-22T00:14:15.562Z,20.27
2023-02-22T00:16:42.186Z,18.00
2023-02-22T00:19:08.725Z,32.75
2023-02-22T00:21:35.243Z,19.30
2023-02-22T00:24:17.079Z,22.55
2023-02-22T00:26:43.602Z,18.38
2023-02-22T00:29:10.121Z,19.50
2023-02-22T00:31:39.652Z,19.38
2023-02-22T00:34:06.224Z,18.38
2023-02-22T00:36:32.714Z,17.90
2023-02-22T00:38:59.503Z,18.15
2023-02-22T00:41:26.099Z,17.47
2023-02-22T00:43:52.629Z,16.50
2023-02-22T00:46:19.092Z,19.83
2023-02-22T00:48:45.547Z,19.45
2023-02-22T00:51:12.064Z,18.60
2023-02-22T00:53:38.579Z,15.90
2023-02-22T00:56:05.509Z,20.25
2023-02-22T00:58:32.021Z,18.25
2023-02-22T01:00:58.601Z,18.15
2023-02-22T01:03:25.128Z,19.38
2023-02-22T01:05:51.634Z,18.80
2023-02-22T01:08:18.328Z,17.58
2023-02-22T01:10:45.263Z,13.35
2023-02-22T01:13:13.175Z,15.10
2023-02-22T01:15:42.237Z,16.08
2023-02-22T01:18:09.641Z,17.83
2023-02-22T01:20:36.874Z,16.25
2023-02-22T01:23:06.832Z,18.08
2023-02-22T01:25:34.855Z,15.82
2023-02-22T01:28:02.774Z,18.15
2023-02-22T01:30:35.538Z,19.50
2023-02-22T01:33:03.911Z,17.38
2023-02-22T01:35:33.016Z,13.50
2023-02-22T01:37:59.620Z,13.40
2023-02-22T01:40:30.239Z,15.93
2023-02-22T01:43:02.890Z,16.60
2023-02-22T01:45:35.410Z,15.90
2023-02-22T01:48:11.557Z,16.35
2023-02-22T01:51:00.733Z,14.68
2023-02-22T01:53:35.787Z,14.02
2023-02-22T01:56:04.156Z,14.87
2023-02-22T01:58:33.786Z,16.48
2023-02-22T02:01:01.227Z,16.13
2023-02-22T02:03:35.420Z,17.48
2023-02-22T02:06:05.253Z,17.63
2023-02-22T02:09:00.731Z,18.37
2023-02-22T02:11:28.216Z,14.52
2023-02-22T02:13:57.795Z,17.55
2023-02-22T02:17:01.483Z,18.25
2023-02-22T02:20:08.201Z,18.38
2023-02-22T02:22:38.445Z,17.23
2023-02-22T02:25:34.221Z,17.42
2023-02-22T02:28:27.865Z,18.30
2023-02-22T02:31:09.964Z,17.45
2023-02-22T02:34:01.692Z,18.58
2023-02-22T02:36:47.430Z,18.70
2023-02-22T02:39:27.649Z,22.77
2023-02-22T02:41:54.292Z,19.25
2023-02-22T02:44:51.213Z,17.60
2023-02-22T02:47:24.837Z,18.33
2023-02-22T02:49:58.103Z,21.10
2023-02-22T02:52:26.120Z,21.88
2023-02-22T02:54:54.886Z,23.73
2023-02-22T02:57:21.944Z,21.10
2023-02-22T02:59:48.546Z,19.77
2023-02-22T03:02:46.041Z,20.53
2023-02-22T03:05:31.923Z,21.98
2023-02-22T03:08:07.815Z,21.05
2023-02-22T03:10:50.391Z,21.35
2023-02-22T03:14:18.532Z,20.77
2023-02-22T03:17:12.856Z,22.03
2023-02-22T03:19:58.527Z,21.58
2023-02-22T03:22:34.601Z,22.88
2023-02-22T03:25:28.993Z,23.20
2023-02-22T03:28:02.979Z,25.98
2023-02-22T03:30:41.559Z,23.00
2023-02-22T03:33:43.493Z,21.73
2023-02-22T03:36:18.709Z,23.92
2023-02-22T03:38:46.968Z,24.48
2023-02-22T03:41:18.842Z,23.20
2023-02-22T03:43:50.757Z,20.00
2023-02-22T03:46:19.405Z,26.02
2023-02-22T03:48:51.017Z,24.13
2023-02-22T03:51:18.714Z,26.13
2023-02-22T03:53:45.564Z,24.77
2023-02-22T03:56:20.143Z,25.97
2023-02-22T03:58:48.067Z,21.42
2023-02-22T04:01:15.710Z,24.25
2023-02-22T04:03:42.851Z,27.13
2023-02-22T04:06:09.946Z,23.67
2023-02-22T04:08:36.468Z,24.90
2023-02-22T04:11:02.989Z,26.08
2023-02-22T04:13:29.631Z,24.83
2023-02-22T04:15:56.101Z,28.45
2023-02-22T04:18:22.607Z,25.33
2023-02-22T04:20:49.142Z,25.20
2023-02-22T04:23:17.041Z,28.15
2023-02-22T04:25:43.734Z,24.33
2023-02-22T04:28:10.317Z,31.05
2023-02-22T04:30:36.945Z,27.52
2023-02-22T04:33:03.567Z,26.03
2023-02-22T04:35:30.067Z,28.13
2023-02-22T04:37:56.571Z,24.40
2023-02-22T04:40:23.079Z,27.02
2023-02-22T04:42:49.858Z,26.55
2023-02-22T04:45:16.424Z,28.30
2023-02-22T04:47:42.962Z,28.02
2023-02-22T04:50:11.367Z,29.00
2023-02-22T04:52:37.858Z,25.00
2023-02-22T04:55:05.260Z,30.00
2023-02-22T04:57:31.914Z,24.60
2023-02-22T04:59:58.585Z,23.02
2023-02-22T05:02:25.307Z,28.98
2023-02-22T05:04:51.972Z,26.58
2023-02-22T05:07:18.432Z,26.95
2023-02-22T05:09:44.972Z,31.73
2023-02-22T05:12:11.510Z,31.40
2023-02-22T05:14:38.491Z,25.80
2023-02-22T05:17:05.107Z,25.15
2023-02-22T05:19:31.624Z,25.40
2023-02-22T05:21:58.180Z,30.80
2023-02-22T05:24:24.844Z,26.00
2023-02-22T05:26:51.594Z,28.02
2023-02-22T05:29:18.319Z,23.67
2023-02-22T05:31:44.854Z,26.33
2023-02-22T05:34:11.546Z,31.50
2023-02-22T05:36:38.110Z,30.08
2023-02-22T05:39:05.472Z,29.02
2023-02-22T05:41:31.980Z,31.00
2023-02-22T05:43:58.498Z,32.20
2023-02-22T05:46:25.254Z,36.53
2023-02-22T05:48:51.813Z,37.35
2023-02-22T05:51:19.674Z,31.50
2023-02-22T05:53:46.407Z,31.58
2023-02-22T05:56:13.123Z,34.20
2023-02-22T05:58:39.602Z,31.90
2023-02-22T06:01:06.170Z,36.08
2023-02-22T06:03:32.690Z,35.17
2023-02-22T06:05:59.200Z,38.40
2023-02-22T06:08:25.735Z,35.92
2023-02-22T06:10:52.216Z,38.07
2023-02-22T06:13:18.689Z,37.30
2023-02-22T06:15:45.110Z,30.98
2023-02-22T06:18:11.846Z,36.95
2023-02-22T06:20:38.321Z,38.40
2023-02-22T06:23:04.820Z,38.47
2023-02-22T06:25:31.942Z,36.80
2023-02-22T06:28:00.175Z,36.38
2023-02-22T06:30:29.875Z,37.75
2023-02-22T06:32:58.061Z,37.28
2023-02-22T06:35:25.325Z,40.03
2023-02-22T06:37:55.338Z,41.22
2023-02-22T06:40:21.897Z,40.78
2023-02-22T06:42:49.483Z,31.23
2023-02-22T06:45:18.207Z,35.65
2023-02-22T06:47:45.631Z,37.83
2023-02-22T06:50:30.260Z,39.47
2023-02-22T06:52:58.427Z,33.45
2023-02-22T06:55:29.933Z,40.80
2023-02-22T06:57:56.661Z,35.28
2023-02-22T07:00:25.764Z,30.80
2023-02-22T07:02:53.016Z,36.15
2023-02-22T07:05:22.506Z,38.97
2023-02-22T07:07:50.804Z,34.50
2023-02-22T07:10:27.027Z,30.65
2023-02-22T07:12:56.174Z,36.20
2023-02-22T07:15:25.003Z,38.95
2023-02-22T07:17:52.527Z,37.00
2023-02-22T07:20:20.852Z,40.00
2023-02-22T07:22:48.259Z,39.28
2023-02-22T07:25:14.809Z,41.50
2023-02-22T07:27:42.192Z,40.65
2023-02-22T07:30:17.055Z,39.13
2023-02-22T07:32:44.179Z,35.53
2023-02-22T07:35:19.004Z,36.50
2023-02-22T07:37:45.626Z,37.40
2023-02-22T07:40:12.568Z,48.28
2023-02-22T07:42:55.437Z,38.45
2023-02-22T07:45:23.428Z,38.60
2023-02-22T07:47:50.023Z,36.90
2023-02-22T07:50:18.261Z,37.07
2023-02-22T07:52:48.843Z,34.75
2023-02-22T07:55:18.018Z,39.95
2023-02-22T07:57:49.407Z,34.47
2023-02-22T08:00:23.410Z,33.05
2023-02-22T08:02:49.974Z,38.17
2023-02-22T08:05:16.571Z,36.78
2023-02-22T08:07:43.377Z,33.28
2023-02-22T08:10:10.990Z,34.60
2023-02-22T08:12:38.335Z,36.35
2023-02-22T08:15:08.186Z,32.57
2023-02-22T08:17:34.912Z,35.45
2023-02-22T08:20:01.729Z,34.50
2023-02-22T08:22:29.181Z,33.50
2023-02-22T08:24:55.831Z,33.42
2023-02-22T08:27:26.880Z,30.20
2023-02-22T08:29:53.543Z,26.58
2023-02-22T08:32:20.926Z,33.60
2023-02-22T08:34:47.767Z,25.10
2023-02-22T08:37:15.980Z,24.45
2023-02-22T08:39:43.513Z,26.53
2023-02-22T08:42:10.379Z,25.13
2023-02-22T08:44:38.730Z,26.95
2023-02-22T08:47:06.632Z,25.13
2023-02-22T08:49:33.384Z,24.33
2023-02-22T08:51:59.957Z,21.60
2023-02-22T08:54:26.447Z,26.13
2023-02-22T08:56:52.938Z,24.60
2023-02-22T08:59:19.467Z,27.67
2023-02-22T09:01:46.055Z,24.08
2023-02-22T09:04:12.844Z,24.63
2023-02-22T09:06:44.130Z,23.92
2023-02-22T09:09:10.660Z,25.25
2023-02-22T09:11:37.303Z,23.63
2023-02-22T09:14:03.829Z,23.42
2023-02-22T09:16:31.074Z,25.77
2023-02-22T09:18:57.773Z,24.30
2023-02-22T09:21:24.338Z,24.75
2023-02-22T09:23:50.804Z,21.33
2023-02-22T09:26:17.383Z,26.50
2023-02-22T09:28:43.856Z,18.90
2023-02-22T09:31:10.409Z,25.00
2023-02-22T09:33:36.954Z,28.50
2023-02-22T09:36:03.738Z,24.20
2023-02-22T09:38:30.336Z,23.65
2023-02-22T09:41:16.504Z,22.60
2023-02-22T09:44:01.042Z,24.38
2023-02-22T09:46:38.836Z,24.35
2023-02-22T09:49:19.420Z,22.15
2023-02-22T09:52:24.369Z,20.65
2023-02-22T09:54:57.997Z,26.20
2023-02-22T09:57:32.627Z,24.10
2023-02-22T10:00:15.066Z,24.08
2023-02-22T10:02:57.549Z,22.20
2023-02-22T10:05:29.346Z,27.00
2023-02-22T10:08:05.955Z,23.37
2023-02-22T10:10:37.230Z,21.90
2023-02-22T10:13:29.205Z,22.63
2023-02-22T10:16:02.519Z,22.73
2023-02-22T10:18:57.373Z,25.05
2023-02-22T10:21:52.214Z,20.57
2023-02-22T10:24:46.964Z,25.75
2023-02-22T10:27:19.982Z,20.98
2023-02-22T10:29:57.214Z,25.05
2023-02-22T10:32:32.308Z,21.35
2023-02-22T10:35:05.501Z,23.03
2023-02-22T10:37:34.477Z,22.85
2023-02-22T10:40:32.035Z,23.95
2023-02-22T10:43:08.270Z,21.10
2023-02-22T10:45:37.198Z,20.10
2023-02-22T10:48:18.553Z,18.67
2023-02-22T10:50:46.871Z,20.35
2023-02-22T10:53:17.169Z,22.40
2023-02-22T10:56:18.456Z,19.52
2023-02-22T10:59:01.471Z,18.70
2023-02-22T11:01:30.788Z,23.57
2023-02-22T11:03:58.709Z,21.00
2023-02-22T11:06:25.425Z,22.48
2023-02-22T11:09:03.584Z,20.75
2023-02-22T11:11:30.045Z,24.88
2023-02-22T11:13:57.675Z,19.80
2023-02-22T11:16:39.085Z,27.10
2023-02-22T11:19:17.648Z,20.80
2023-02-22T11:21:44.734Z,21.52
2023-02-22T11:24:14.309Z,22.60
2023-02-22T11:26:49.205Z,23.87
2023-02-22T11:29:21.853Z,23.48
2023-02-22T11:31:52.048Z,27.13
2023-02-22T11:34:28.375Z,21.30
2023-02-22T11:36:54.955Z,24.77
2023-02-22T11:39:24.101Z,24.37
2023-02-22T11:41:51.163Z,25.23
2023-02-22T11:44:32.685Z,26.55
2023-02-22T11:47:06.946Z,24.55
2023-02-22T11:49:38.187Z,23.48
2023-02-22T11:52:28.375Z,23.07
2023-02-22T11:55:09.934Z,25.45
2023-02-22T11:57:39.530Z,20.00
2023-02-22T12:00:24.838Z,23.67
2023-02-22T12:03:23.389Z,24.23
2023-02-22T12:06:02.015Z,21.83
2023-02-22T12:09:00.224Z,26.58
2023-02-22T12:11:43.189Z,24.73
2023-02-22T12:14:09.645Z,21.42
2023-02-22T12:16:45.326Z,25.30
2023-02-22T12:19:26.917Z,23.57
2023-02-22T12:22:09.346Z,25.17
2023-02-22T12:25:08.555Z,24.15
2023-02-22T12:27:49.214Z,21.55
2023-02-22T12:30:23.966Z,23.45
2023-02-22T12:32:59.028Z,24.57
2023-02-22T12:35:28.907Z,24.75
2023-02-22T12:38:09.433Z,27.65
2023-02-22T12:41:18.324Z,25.77
2023-02-22T12:44:06.494Z,23.27
2023-02-22T12:46:36.375Z,27.27
2023-02-22T12:49:24.243Z,23.75
2023-02-22T12:52:21.924Z,22.08
2023-02-22T12:55:29.368Z,24.58
2023-02-22T12:58:09.732Z,21.55
2023-02-22T13:00:56.893Z,22.67
2023-02-22T13:03:35.716Z,25.50
2023-02-22T13:06:20.487Z,20.52
2023-02-22T13:08:53.086Z,20.98
2023-02-22T13:11:25.598Z,25.40
2023-02-22T13:14:01.738Z,20.73
2023-02-22T13:16:52.645Z,24.48
2023-02-22T13:19:49.011Z,22.10
2023-02-22T13:22:26.784Z,19.65
2023-02-22T13:25:14.896Z,17.83
2023-02-22T13:27:44.482Z,23.73
2023-02-22T13:30:20.070Z,22.65
2023-02-22T13:33:09.380Z,21.73
2023-02-22T13:36:08.105Z,22.45
2023-02-22T13:39:10.383Z,23.42
2023-02-22T13:42:08.028Z,18.47
2023-02-22T13:44:46.567Z,21.30
2023-02-22T13:47:36.357Z,21.45
2023-02-22T13:50:30.034Z,17.17
2023-02-22T13:52:58.054Z,22.52
2023-02-22T13:55:29.883Z,23.17
2023-02-22T13:58:04.047Z,20.38
2023-02-22T14:00:47.759Z,17.65
2023-02-22T14:03:14.130Z,18.63
2023-02-22T14:05:44.800Z,23.00
2023-02-22T14:08:14.398Z,22.53
2023-02-22T14:10:43.757Z,19.73
2023-02-22T14:13:11.046Z,18.67
2023-02-22T14:16:00.723Z,17.90
2023-02-22T14:18:46.656Z,19.15
2023-02-22T14:21:21.702Z,19.30
2023-02-22T14:23:53.031Z,18.25
2023-02-22T14:26:27.785Z,21.35
2023-02-22T14:29:03.405Z,18.13
2023-02-22T14:31:37.023Z,21.02
2023-02-22T14:34:04.209Z,21.00
2023-02-22T14:36:38.770Z,18.38
2023-02-22T14:39:23.530Z,17.77
2023-02-22T14:42:02.640Z,20.95
2023-02-22T14:45:11.987Z,17.15
2023-02-22T14:48:11.617Z,15.27
2023-02-22T14:50:41.025Z,18.77
2023-02-22T14:53:13.266Z,16.55
2023-02-22T14:56:02.709Z,16.77
2023-02-22T14:58:47.517Z,16.77
2023-02-22T15:01:40.563Z,16.30
2023-02-22T15:04:25.575Z,16.92
2023-02-22T15:06:53.701Z,15.73
2023-02-22T15:09:25.741Z,17.95
2023-02-22T15:12:18.390Z,14.93
2023-02-22T15:14:47.696Z,16.20
2023-02-22T15:17:19.906Z,13.60
2023-02-22T15:19:48.817Z,14.25
2023-02-22T15:22:22.613Z,15.80
2023-02-22T15:25:02.092Z,14.05
2023-02-22T15:27:29.022Z,15.17
2023-02-22T15:30:04.480Z,18.85
2023-02-22T15:32:36.200Z,14.73
2023-02-22T15:35:25.517Z,14.43
2023-02-22T15:38:11.777Z,13.75
2023-02-22T15:40:43.291Z,12.60
2023-02-22T15:43:32.076Z,15.40
2023-02-22T15:45:59.914Z,11.90
2023-02-22T15:48:28.024Z,13.82
2023-02-22T15:51:14.095Z,14.10
2023-02-22T15:53:44.054Z,16.23
2023-02-22T15:56:16.878Z,15.27
2023-02-22T15:58:46.859Z,15.88
2023-02-22T16:01:17.080Z,16.90
2023-02-22T16:03:56.074Z,16.13
2023-02-22T16:06:38.598Z,16.10
2023-02-22T16:09:11.364Z,14.85
2023-02-22T16:11:44.258Z,15.73
2023-02-22T16:14:40.358Z,14.50
2023-02-22T16:17:30.696Z,14.60
2023-02-22T16:20:02.191Z,17.17
2023-02-22T16:22:34.686Z,19.35
2023-02-22T16:25:18.532Z,13.95
2023-02-22T16:27:57.885Z,18.75
2023-02-22T16:30:26.164Z,15.68
2023-02-22T16:32:55.532Z,16.30
2023-02-22T16:35:28.719Z,19.00
2023-02-22T16:38:03.890Z,15.38
2023-02-22T16:40:34.591Z,21.45
2023-02-22T16:43:07.912Z,16.92
2023-02-22T16:45:36.171Z,20.13
2023-02-22T16:48:14.620Z,15.65
2023-02-22T16:50:41.634Z,18.85
2023-02-22T16:53:08.317Z,21.45
2023-02-22T16:55:36.608Z,15.80
2023-02-22T16:58:04.715Z,17.80
2023-02-22T17:00:31.672Z,17.80
2023-02-22T17:03:04.325Z,20.25
2023-02-22T17:05:32.342Z,20.63
2023-02-22T17:07:58.872Z,16.48
2023-02-22T17:10:26.178Z,21.57
2023-02-22T17:12:56.233Z,19.63
2023-02-22T17:15:28.258Z,17.73
2023-02-22T17:17:56.686Z,22.95
2023-02-22T17:20:30.229Z,23.38
2023-02-22T17:23:02.527Z,21.70
2023-02-22T17:25:33.193Z,27.00
2023-02-22T17:27:59.726Z,21.80
2023-02-22T17:30:26.872Z,22.60
2023-02-22T17:32:56.068Z,24.58
2023-02-22T17:35:23.847Z,28.17
2023-02-22T17:37:50.380Z,27.40
2023-02-22T17:40:17.361Z,27.02
2023-02-22T17:42:45.715Z,27.95
2023-02-22T17:45:14.106Z,30.55
2023-02-22T17:47:44.115Z,28.07
2023-02-22T17:50:11.498Z,28.42
2023-02-22T17:52:38.639Z,29.60
2023-02-22T17:55:06.494Z,35.60
2023-02-22T17:57:33.229Z,32.33
2023-02-22T18:00:00.760Z,35.53
2023-02-22T18:02:27.517Z,31.13
2023-02-22T18:04:54.051Z,31.95
2023-02-22T18:07:20.573Z,32.90
2023-02-22T18:09:47.399Z,35.70
2023-02-22T18:12:13.874Z,32.37
2023-02-22T18:14:40.372Z,37.15
2023-02-22T18:17:06.845Z,33.95
2023-02-22T18:19:34.556Z,34.95
2023-02-22T18:22:03.057Z,38.25
2023-02-22T18:24:36.523Z,37.97
2023-02-22T18:27:06.044Z,34.30
2023-02-22T18:29:32.774Z,38.22
2023-02-22T18:31:59.523Z,36.33
2023-02-22T18:34:26.148Z,41.47
2023-02-22T18:36:52.723Z,41.03
2023-02-22T18:39:19.265Z,40.97
2023-02-22T18:41:48.630Z,43.65
2023-02-22T18:44:16.115Z,41.65
2023-02-22T18:46:46.176Z,43.13
2023-02-22T18:49:13.840Z,44.53
2023-02-22T18:51:43.567Z,46.30
2023-02-22T18:54:12.479Z,45.60
2023-02-22T18:56:40.276Z,47.00
2023-02-22T18:59:11.970Z,47.70
2023-02-22T19:01:40.312Z,47.27
2023-02-22T19:04:12.705Z,51.97
2023-02-22T19:06:39.908Z,50.92
2023-02-22T19:09:09.438Z,52.70
2023-02-22T19:11:37.078Z,49.08
2023-02-22T19:14:05.107Z,54.40
2023-02-22T19:16:32.945Z,53.28
2023-02-22T19:18:59.644Z,52.63
2023-02-22T19:21:28.872Z,49.95
2023-02-22T19:23:56.282Z,52.00
2023-02-22T19:26:25.684Z,52.13
2023-02-22T19:28:54.722Z,53.25
2023-02-22T19:31:23.030Z,52.67
2023-02-22T19:33:53.048Z,58.33
2023-02-22T19:36:20.706Z,59.45
2023-02-22T19:38:47.497Z,55.73
2023-02-22T19:41:18.270Z,53.70
2023-02-22T19:43:46.411Z,51.00
2023-02-22T19:46:13.318Z,54.85
2023-02-22T19:48:41.278Z,51.42
2023-02-22T19:51:10.937Z,57.97
2023-02-22T19:53:41.917Z,59.65
2023-02-22T19:56:11.348Z,57.28
2023-02-22T19:58:39.770Z,56.75
2023-02-22T20:01:12.781Z,52.92
2023-02-22T20:03:39.829Z,49.57
2023-02-22T20:06:09.147Z,50.97
2023-02-22T20:08:37.638Z,55.13
2023-02-22T20:11:05.797Z,50.40
2023-02-22T20:13:33.526Z,49.60
2023-02-22T20:16:00.628Z,48.47
2023-02-22T20:18:27.083Z,47.85
2023-02-22T20:20:53.568Z,52.03
2023-02-22T20:23:20.079Z,50.22
2023-02-22T20:25:56.659Z,51.80
2023-02-22T20:28:24.372Z,48.53
2023-02-22T20:30:51.759Z,49.10
2023-02-22T20:33:19.237Z,55.17
2023-02-22T20:35:46.793Z,49.15
2023-02-22T20:38:14.528Z,47.83
2023-02-22T20:40:42.534Z,49.63
2023-02-22T20:43:09.758Z,52.53
2023-02-22T20:45:38.238Z,52.33
2023-02-22T20:48:05.737Z,48.38
2023-02-22T20:50:34.581Z,48.72
2023-02-22T20:53:01.023Z,49.97
2023-02-22T20:55:27.615Z,45.63
2023-02-22T20:57:54.175Z,43.85
2023-02-22T21:00:20.727Z,46.70
2023-02-22T21:02:47.291Z,45.10
2023-02-22T21:05:14.263Z,42.03
2023-02-22T21:07:40.754Z,46.10
2023-02-22T21:10:07.534Z,47.80
2023-02-22T21:12:34.864Z,45.55
2023-02-22T21:15:01.393Z,49.72
2023-02-22T21:17:30.974Z,46.73
2023-02-22T21:19:58.466Z,46.72
2023-02-22T21:22:25.280Z,49.63
2023-02-22T21:24:52.188Z,49.38
2023-02-22T21:27:19.153Z,42.65
2023-02-22T21:29:45.698Z,47.83
2023-02-22T21:32:13.853Z,45.28
2023-02-22T21:34:40.842Z,48.95
2023-02-22T21:37:08.495Z,43.85
2023-02-22T21:39:35.492Z,41.15
2023-02-22T21:42:02.509Z,41.77
2023-02-22T21:44:29.306Z,46.45
2023-02-22T21:46:55.947Z,47.33
2023-02-22T21:49:23.243Z,46.17
2023-02-22T21:51:51.704Z,42.17
2023-02-22T21:54:18.732Z,44.97
2023-02-22T21:56:45.687Z,44.20
2023-02-22T21:59:19.019Z,40.00
2023-02-22T22:01:51.833Z,40.85
2023-02-22T22:04:21.214Z,36.88
2023-02-22T22:06:50.989Z,41.73
2023-02-22T22:09:18.323Z,37.00
2023-02-22T22:11:53.624Z,43.08
2023-02-22T22:14:23.176Z,37.65
2023-02-22T22:16:53.860Z,38.42
2023-02-22T22:19:20.499Z,39.43
2023-02-22T22:21:48.795Z,42.03
2023-02-22T22:24:15.352Z,44.78
2023-02-22T22:26:43.982Z,35.85
2023-02-22T22:29:11.529Z,39.65
2023-02-22T22:31:38.595Z,40.23
2023-02-22T22:34:06.038Z,40.72
2023-02-22T22:36:34.490Z,43.10
2023-02-22T22:39:01.066Z,38.33
2023-02-22T22:41:30.708Z,40.20
2023-02-22T22:43:57.278Z,42.00
2023-02-22T22:46:23.840Z,42.80
2023-02-22T22:48:50.488Z,40.38
2023-02-22T22:51:20.828Z,38.53
2023-02-22T22:53:49.498Z,38.65
2023-02-22T22:56:26.037Z,40.07
2023-02-22T22:58:55.267Z,42.53
2023-02-22T23:01:27.942Z,40.88
2023-02-22T23:04:02.086Z,43.08
2023-02-22T23:06:32.770Z,39.10
2023-02-22T23:09:19.317Z,37.57
2023-02-22T23:11:53.281Z,36.50
2023-02-22T23:14:24.288Z,39.45
2023-02-22T23:16:56.398Z,43.47
2023-02-22T23:19:22.995Z,40.28
2023-02-22T23:21:50.254Z,39.90
2023-02-22T23:24:21.205Z,38.90
2023-02-22T23:26:51.087Z,37.65
2023-02-22T23:29:19.767Z,39.55
2023-02-22T23:31:48.682Z,40.95
2023-02-22T23:34:21.224Z,37.10
2023-02-22T23:36:48.514Z,36.88
2023-02-22T23:39:18.114Z,42.13
2023-02-22T23:41:44.639Z,37.97
2023-02-22T23:44:13.299Z,40.28
2023-02-22T23:46:41.230Z,39.23
2023-02-22T23:49:09.916Z,40.63
2023-02-22T23:51:44.457Z,37.30
2023-02-22T23:54:14.402Z,37.53
2023-02-22T23:56:47.325Z,36.45
2023-02-22T23:59:14.463Z,40.87
